sensor_id;sensor_type;location;lat;lon;timestamp;temperature;humidity
17954;DHT22;9102;53.548;9.926;2023-11-19T00:01:07;5.50;99.90
17954;DHT22;9102;53.548;9.926;2023-11-19T00:03:34;5.50;99.90
17954;DHT22;9102;53.548;9.926;2023-11-19T00:06:01;5.50;99.90
17954;DHT22;9102;53.548;9.926;2023-11-19T00:08:29;5.40;99.90
17954;DHT22;9102;53.548;9.926;2023-11-19T00:10:58;5.50;99.90
17954;DHT22;9102;53.548;9.926;2023-11-19T00:13:24;5.50;99.90
17954;DHT22;9102;53.548;9.926;2023-11-19T00:15:51;5.40;99.90
17954;DHT22;9102;53.548;9.926;2023-11-19T00:18:18;5.40;99.90
17954;DHT22;9102;53.548;9.926;2023-11-19T00:20:45;5.50;99.90
17954;DHT22;9102;53.548;9.926;2023-11-19T00:23:12;5.50;99.90
17954;DHT22;9102;53.548;9.926;2023-11-19T00:25:39;5.50;99.90
17954;DHT22;9102;53.548;9.926;2023-11-19T00:28:07;5.50;99.90
17954;DHT22;9102;53.548;9.926;2023-11-19T00:30:33;5.50;99.90
17954;DHT22;9102;53.548;9.926;2023-11-19T00:33:00;5.70;99.90
17954;DHT22;9102;53.548;9.926;2023-11-19T00:35:27;5.60;99.90
17954;DHT22;9102;53.548;9.926;2023-11-19T00:37:54;5.60;99.90
17954;DHT22;9102;53.548;9.926;2023-11-19T00:40:20;5.60;99.90
17954;DHT22;9102;53.548;9.926;2023-11-19T00:42:48;5.50;99.90
17954;DHT22;9102;53.548;9.926;2023-11-19T00:45:16;5.60;99.90
17954;DHT22;9102;53.548;9.926;2023-11-19T00:47:44;5.60;99.90
17954;DHT22;9102;53.548;9.926;2023-11-19T00:50:11;5.60;99.90
17954;DHT22;9102;53.548;9.926;2023-11-19T00:52:39;5.60;99.90
17954;DHT22;9102;53.548;9.926;2023-11-19T00:55:06;5.60;99.90
17954;DHT22;9102;53.548;9.926;2023-11-19T00:57:33;5.60;99.90
17954;DHT22;9102;53.548;9.926;2023-11-19T01:00:01;5.60;99.90
17954;DHT22;9102;53.548;9.926;2023-11-19T01:02:29;5.60;99.90
17954;DHT22;9102;53.548;9.926;2023-11-19T01:04:56;5.60;99.90
17954;DHT22;9102;53.548;9.926;2023-11-19T01:07:23;5.60;99.90
17954;DHT22;9102;53.548;9.926;2023-11-19T01:09:51;5.70;99.90
17954;DHT22;9102;53.548;9.926;2023-11-19T01:12:19;5.60;99.90
17954;DHT22;9102;53.548;9.926;2023-11-19T01:14:46;5.60;99.90
17954;DHT22;9102;53.548;9.926;2023-11-19T01:17:13;5.60;99.90
17954;DHT22;9102;53.548;9.926;2023-11-19T01:19:41;5.60;99.90
17954;DHT22;9102;53.548;9.926;2023-11-19T01:22:08;5.60;99.90
17954;DHT22;9102;53.548;9.926;2023-11-19T01:24:34;5.60;99.90
17954;DHT22;9102;53.548;9.926;2023-11-19T01:27:01;5.60;99.90
17954;DHT22;9102;53.548;9.926;2023-11-19T01:29:28;5.70;99.90
17954;DHT22;9102;53.548;9.926;2023-11-19T01:31:55;5.60;99.90
17954;DHT22;9102;53.548;9.926;2023-11-19T01:34:22;5.70;99.90
17954;DHT22;9102;53.548;9.926;2023-11-19T01:36:50;5.70;99.90
17954;DHT22;9102;53.548;9.926;2023-11-19T01:39:17;5.70;99.90
17954;DHT22;9102;53.548;9.926;2023-11-19T01:41:45;5.70;99.90
17954;DHT22;9102;53.548;9.926;2023-11-19T01:44:12;5.70;99.90
17954;DHT22;9102;53.548;9.926;2023-11-19T01:46:40;5.70;99.90
17954;DHT22;9102;53.548;9.926;2023-11-19T01:49:07;5.70;99.90
17954;DHT22;9102;53.548;9.926;2023-11-19T01:51:35;5.70;99.90
17954;DHT22;9102;53.548;9.926;2023-11-19T01:54:04;5.70;99.90
17954;DHT22;9102;53.548;9.926;2023-11-19T01:56:32;5.70;99.90
17954;DHT22;9102;53.548;9.926;2023-11-19T01:58:59;5.70;99.90
17954;DHT22;9102;53.548;9.926;2023-11-19T02:01:26;5.80;99.90
17954;DHT22;9102;53.548;9.926;2023-11-19T02:03:55;5.70;99.90
17954;DHT22;9102;53.548;9.926;2023-11-19T02:06:24;5.80;99.90
17954;DHT22;9102;53.548;9.926;2023-11-19T02:08:51;5.80;99.90
17954;DHT22;9102;53.548;9.926;2023-11-19T02:11:19;5.80;99.90
17954;DHT22;9102;53.548;9.926;2023-11-19T02:13:46;5.70;99.90
17954;DHT22;9102;53.548;9.926;2023-11-19T02:16:13;5.80;99.90
17954;DHT22;9102;53.548;9.926;2023-11-19T02:18:40;5.80;99.90
17954;DHT22;9102;53.548;9.926;2023-11-19T02:21:06;5.80;99.90
17954;DHT22;9102;53.548;9.926;2023-11-19T02:23:36;5.80;99.90
17954;DHT22;9102;53.548;9.926;2023-11-19T02:26:10;5.80;99.90
17954;DHT22;9102;53.548;9.926;2023-11-19T02:28:41;5.80;99.90
17954;DHT22;9102;53.548;9.926;2023-11-19T02:31:08;5.80;99.90
17954;DHT22;9102;53.548;9.926;2023-11-19T02:33:36;5.90;99.90
17954;DHT22;9102;53.548;9.926;2023-11-19T02:36:03;5.90;99.90
17954;DHT22;9102;53.548;9.926;2023-11-19T02:38:30;5.90;99.90
17954;DHT22;9102;53.548;9.926;2023-11-19T02:40:57;6.00;99.90
17954;DHT22;9102;53.548;9.926;2023-11-19T02:43:24;6.00;99.90
17954;DHT22;9102;53.548;9.926;2023-11-19T02:45:52;6.00;99.90
17954;DHT22;9102;53.548;9.926;2023-11-19T02:48:21;6.00;99.90
17954;DHT22;9102;53.548;9.926;2023-11-19T02:50:47;6.00;99.90
17954;DHT22;9102;53.548;9.926;2023-11-19T02:53:14;6.00;99.90
17954;DHT22;9102;53.548;9.926;2023-11-19T02:55:42;6.00;99.90
17954;DHT22;9102;53.548;9.926;2023-11-19T02:58:13;6.00;99.90
17954;DHT22;9102;53.548;9.926;2023-11-19T03:00:49;6.10;99.90
17954;DHT22;9102;53.548;9.926;2023-11-19T03:03:24;6.10;99.90
17954;DHT22;9102;53.548;9.926;2023-11-19T03:05:56;6.10;99.90
17954;DHT22;9102;53.548;9.926;2023-11-19T03:08:23;6.20;99.90
17954;DHT22;9102;53.548;9.926;2023-11-19T03:10:50;6.20;99.90
17954;DHT22;9102;53.548;9.926;2023-11-19T03:13:17;6.20;99.90
17954;DHT22;9102;53.548;9.926;2023-11-19T03:15:43;6.20;99.90
17954;DHT22;9102;53.548;9.926;2023-11-19T03:18:11;6.30;99.90
17954;DHT22;9102;53.548;9.926;2023-11-19T03:20:39;6.40;99.90
17954;DHT22;9102;53.548;9.926;2023-11-19T03:23:06;6.50;99.90
17954;DHT22;9102;53.548;9.926;2023-11-19T03:25:33;6.50;99.90
17954;DHT22;9102;53.548;9.926;2023-11-19T03:28:00;6.50;99.90
17954;DHT22;9102;53.548;9.926;2023-11-19T03:30:28;6.60;99.90
17954;DHT22;9102;53.548;9.926;2023-11-19T03:32:55;6.60;99.90
17954;DHT22;9102;53.548;9.926;2023-11-19T03:35:23;6.60;99.90
17954;DHT22;9102;53.548;9.926;2023-11-19T03:37:51;6.70;99.90
17954;DHT22;9102;53.548;9.926;2023-11-19T03:40:18;6.60;99.90
17954;DHT22;9102;53.548;9.926;2023-11-19T03:42:45;6.60;99.90
17954;DHT22;9102;53.548;9.926;2023-11-19T03:45:12;6.60;99.90
17954;DHT22;9102;53.548;9.926;2023-11-19T03:47:39;6.70;99.90
17954;DHT22;9102;53.548;9.926;2023-11-19T03:50:07;6.70;99.90
17954;DHT22;9102;53.548;9.926;2023-11-19T03:52:34;6.70;99.90
17954;DHT22;9102;53.548;9.926;2023-11-19T03:55:02;6.70;99.90
17954;DHT22;9102;53.548;9.926;2023-11-19T03:57:30;6.70;99.90
17954;DHT22;9102;53.548;9.926;2023-11-19T03:59:57;6.80;99.90
17954;DHT22;9102;53.548;9.926;2023-11-19T04:02:24;6.80;99.90
17954;DHT22;9102;53.548;9.926;2023-11-19T04:04:53;6.90;99.90
17954;DHT22;9102;53.548;9.926;2023-11-19T04:07:20;7.00;99.90
17954;DHT22;9102;53.548;9.926;2023-11-19T04:09:47;6.90;99.90
17954;DHT22;9102;53.548;9.926;2023-11-19T04:12:15;6.80;99.90
17954;DHT22;9102;53.548;9.926;2023-11-19T04:14:42;6.80;99.90
17954;DHT22;9102;53.548;9.926;2023-11-19T04:17:09;6.80;99.90
17954;DHT22;9102;53.548;9.926;2023-11-19T04:19:36;6.80;99.90
17954;DHT22;9102;53.548;9.926;2023-11-19T04:22:03;6.70;99.90
17954;DHT22;9102;53.548;9.926;2023-11-19T04:24:30;6.70;99.90
17954;DHT22;9102;53.548;9.926;2023-11-19T04:26:57;6.70;99.90
17954;DHT22;9102;53.548;9.926;2023-11-19T04:29:26;6.70;99.90
17954;DHT22;9102;53.548;9.926;2023-11-19T04:31:52;6.80;99.90
17954;DHT22;9102;53.548;9.926;2023-11-19T04:34:19;6.80;99.90
17954;DHT22;9102;53.548;9.926;2023-11-19T04:36:46;6.80;99.90
17954;DHT22;9102;53.548;9.926;2023-11-19T04:39:13;6.80;99.90
17954;DHT22;9102;53.548;9.926;2023-11-19T04:41:47;6.80;99.90
17954;DHT22;9102;53.548;9.926;2023-11-19T04:44:14;6.90;99.90
17954;DHT22;9102;53.548;9.926;2023-11-19T04:46:42;6.90;99.90
17954;DHT22;9102;53.548;9.926;2023-11-19T04:49:09;6.90;99.90
17954;DHT22;9102;53.548;9.926;2023-11-19T04:51:38;6.90;99.90
17954;DHT22;9102;53.548;9.926;2023-11-19T04:54:06;6.90;99.90
17954;DHT22;9102;53.548;9.926;2023-11-19T04:56:34;7.00;99.90
17954;DHT22;9102;53.548;9.926;2023-11-19T04:59:01;7.10;99.90
17954;DHT22;9102;53.548;9.926;2023-11-19T05:01:27;7.10;99.90
17954;DHT22;9102;53.548;9.926;2023-11-19T05:03:56;7.10;99.90
17954;DHT22;9102;53.548;9.926;2023-11-19T05:06:26;7.10;99.90
17954;DHT22;9102;53.548;9.926;2023-11-19T05:08:53;7.20;99.90
17954;DHT22;9102;53.548;9.926;2023-11-19T05:11:20;7.30;99.90
17954;DHT22;9102;53.548;9.926;2023-11-19T05:13:47;7.30;99.90
17954;DHT22;9102;53.548;9.926;2023-11-19T05:16:14;7.30;99.90
17954;DHT22;9102;53.548;9.926;2023-11-19T05:18:41;7.40;99.90
17954;DHT22;9102;53.548;9.926;2023-11-19T05:21:09;7.50;99.90
17954;DHT22;9102;53.548;9.926;2023-11-19T05:23:36;7.60;99.90
17954;DHT22;9102;53.548;9.926;2023-11-19T05:26:03;7.70;99.90
17954;DHT22;9102;53.548;9.926;2023-11-19T05:28:30;7.80;99.90
17954;DHT22;9102;53.548;9.926;2023-11-19T05:30:57;8.00;99.90
17954;DHT22;9102;53.548;9.926;2023-11-19T05:33:24;8.20;99.90
17954;DHT22;9102;53.548;9.926;2023-11-19T05:35:51;8.30;99.90
17954;DHT22;9102;53.548;9.926;2023-11-19T05:38:19;8.50;99.90
17954;DHT22;9102;53.548;9.926;2023-11-19T05:40:46;8.60;99.90
17954;DHT22;9102;53.548;9.926;2023-11-19T05:43:14;8.70;99.90
17954;DHT22;9102;53.548;9.926;2023-11-19T05:45:42;8.80;99.90
17954;DHT22;9102;53.548;9.926;2023-11-19T05:48:09;8.80;99.90
17954;DHT22;9102;53.548;9.926;2023-11-19T05:50:36;9.00;99.90
17954;DHT22;9102;53.548;9.926;2023-11-19T05:53:03;9.10;99.90
17954;DHT22;9102;53.548;9.926;2023-11-19T05:55:35;9.10;99.90
17954;DHT22;9102;53.548;9.926;2023-11-19T05:58:03;9.20;99.90
17954;DHT22;9102;53.548;9.926;2023-11-19T06:00:32;9.30;99.90
17954;DHT22;9102;53.548;9.926;2023-11-19T06:02:58;9.40;99.90
17954;DHT22;9102;53.548;9.926;2023-11-19T06:05:25;9.40;99.90
17954;DHT22;9102;53.548;9.926;2023-11-19T06:07:52;9.50;99.90
17954;DHT22;9102;53.548;9.926;2023-11-19T06:10:19;9.50;99.90
17954;DHT22;9102;53.548;9.926;2023-11-19T06:12:47;9.60;99.90
17954;DHT22;9102;53.548;9.926;2023-11-19T06:15:21;9.70;99.90
17954;DHT22;9102;53.548;9.926;2023-11-19T06:17:48;9.80;99.90
17954;DHT22;9102;53.548;9.926;2023-11-19T06:20:15;9.80;99.90
17954;DHT22;9102;53.548;9.926;2023-11-19T06:22:42;9.90;99.90
17954;DHT22;9102;53.548;9.926;2023-11-19T06:25:11;9.90;99.90
17954;DHT22;9102;53.548;9.926;2023-11-19T06:27:40;9.90;99.90
17954;DHT22;9102;53.548;9.926;2023-11-19T06:30:09;9.90;99.90
17954;DHT22;9102;53.548;9.926;2023-11-19T06:32:36;9.90;99.90
17954;DHT22;9102;53.548;9.926;2023-11-19T06:35:03;9.90;99.90
17954;DHT22;9102;53.548;9.926;2023-11-19T06:37:30;10.00;99.90
17954;DHT22;9102;53.548;9.926;2023-11-19T06:39:57;10.00;99.90
17954;DHT22;9102;53.548;9.926;2023-11-19T06:42:24;10.00;99.90
17954;DHT22;9102;53.548;9.926;2023-11-19T06:44:51;10.10;99.90
17954;DHT22;9102;53.548;9.926;2023-11-19T06:47:19;10.20;99.90
17954;DHT22;9102;53.548;9.926;2023-11-19T06:49:46;10.30;99.90
17954;DHT22;9102;53.548;9.926;2023-11-19T06:52:13;10.30;99.90
17954;DHT22;9102;53.548;9.926;2023-11-19T06:54:40;10.30;99.90
17954;DHT22;9102;53.548;9.926;2023-11-19T06:57:06;10.40;99.90
17954;DHT22;9102;53.548;9.926;2023-11-19T06:59:35;10.40;99.90
17954;DHT22;9102;53.548;9.926;2023-11-19T07:02:03;10.40;99.90
17954;DHT22;9102;53.548;9.926;2023-11-19T07:04:31;10.40;99.90
17954;DHT22;9102;53.548;9.926;2023-11-19T07:06:58;10.30;99.90
17954;DHT22;9102;53.548;9.926;2023-11-19T07:09:26;10.30;99.90
17954;DHT22;9102;53.548;9.926;2023-11-19T07:11:52;10.30;99.90
17954;DHT22;9102;53.548;9.926;2023-11-19T07:14:19;10.30;99.90
17954;DHT22;9102;53.548;9.926;2023-11-19T07:16:47;10.40;99.90
17954;DHT22;9102;53.548;9.926;2023-11-19T07:19:15;10.40;99.90
17954;DHT22;9102;53.548;9.926;2023-11-19T07:21:43;10.40;99.90
17954;DHT22;9102;53.548;9.926;2023-11-19T07:24:11;10.40;99.90
17954;DHT22;9102;53.548;9.926;2023-11-19T07:26:41;10.40;99.90
17954;DHT22;9102;53.548;9.926;2023-11-19T07:29:08;10.40;99.90
17954;DHT22;9102;53.548;9.926;2023-11-19T07:31:35;10.30;99.90
17954;DHT22;9102;53.548;9.926;2023-11-19T07:34:02;10.30;99.90
17954;DHT22;9102;53.548;9.926;2023-11-19T07:36:30;10.40;99.90
17954;DHT22;9102;53.548;9.926;2023-11-19T07:38:58;10.40;99.90
17954;DHT22;9102;53.548;9.926;2023-11-19T07:41:25;10.40;99.90
17954;DHT22;9102;53.548;9.926;2023-11-19T07:43:52;10.40;99.90
17954;DHT22;9102;53.548;9.926;2023-11-19T07:46:20;10.40;99.90
17954;DHT22;9102;53.548;9.926;2023-11-19T07:48:46;10.40;99.90
17954;DHT22;9102;53.548;9.926;2023-11-19T07:51:13;10.40;99.90
17954;DHT22;9102;53.548;9.926;2023-11-19T07:53:40;10.50;99.90
17954;DHT22;9102;53.548;9.926;2023-11-19T07:56:09;10.50;99.90
17954;DHT22;9102;53.548;9.926;2023-11-19T07:58:36;10.50;99.90
17954;DHT22;9102;53.548;9.926;2023-11-19T08:01:04;10.60;99.90
17954;DHT22;9102;53.548;9.926;2023-11-19T08:03:31;10.50;99.90
17954;DHT22;9102;53.548;9.926;2023-11-19T08:05:59;10.50;99.90
17954;DHT22;9102;53.548;9.926;2023-11-19T08:08:26;10.60;99.90
17954;DHT22;9102;53.548;9.926;2023-11-19T08:10:55;10.60;99.90
17954;DHT22;9102;53.548;9.926;2023-11-19T08:13:23;10.50;99.90
17954;DHT22;9102;53.548;9.926;2023-11-19T08:15:50;10.50;99.90
17954;DHT22;9102;53.548;9.926;2023-11-19T08:18:17;10.60;99.90
17954;DHT22;9102;53.548;9.926;2023-11-19T08:20:44;10.60;99.90
17954;DHT22;9102;53.548;9.926;2023-11-19T08:23:14;10.70;99.90
17954;DHT22;9102;53.548;9.926;2023-11-19T08:25:41;10.70;99.90
17954;DHT22;9102;53.548;9.926;2023-11-19T08:28:08;10.60;99.90
17954;DHT22;9102;53.548;9.926;2023-11-19T08:30:36;10.60;99.90
17954;DHT22;9102;53.548;9.926;2023-11-19T08:33:03;10.60;99.90
17954;DHT22;9102;53.548;9.926;2023-11-19T08:35:31;10.60;99.90
17954;DHT22;9102;53.548;9.926;2023-11-19T08:37:58;10.60;99.90
17954;DHT22;9102;53.548;9.926;2023-11-19T08:40:25;10.60;99.90
17954;DHT22;9102;53.548;9.926;2023-11-19T08:42:52;10.60;99.90
17954;DHT22;9102;53.548;9.926;2023-11-19T08:45:19;10.70;99.90
17954;DHT22;9102;53.548;9.926;2023-11-19T08:47:47;10.60;99.90
17954;DHT22;9102;53.548;9.926;2023-11-19T08:50:14;10.60;99.90
17954;DHT22;9102;53.548;9.926;2023-11-19T08:52:40;10.60;99.90
17954;DHT22;9102;53.548;9.926;2023-11-19T08:55:07;10.70;99.90
17954;DHT22;9102;53.548;9.926;2023-11-19T08:57:35;10.70;99.90
17954;DHT22;9102;53.548;9.926;2023-11-19T09:00:02;10.70;99.90
17954;DHT22;9102;53.548;9.926;2023-11-19T09:02:32;10.70;99.90
17954;DHT22;9102;53.548;9.926;2023-11-19T09:05:01;10.70;99.90
17954;DHT22;9102;53.548;9.926;2023-11-19T09:07:27;10.80;99.90
17954;DHT22;9102;53.548;9.926;2023-11-19T09:09:54;10.80;99.90
17954;DHT22;9102;53.548;9.926;2023-11-19T09:12:21;10.80;99.90
17954;DHT22;9102;53.548;9.926;2023-11-19T09:14:48;10.90;99.90
17954;DHT22;9102;53.548;9.926;2023-11-19T09:17:15;10.90;99.90
17954;DHT22;9102;53.548;9.926;2023-11-19T09:19:43;10.90;99.90
17954;DHT22;9102;53.548;9.926;2023-11-19T09:22:12;10.90;99.90
17954;DHT22;9102;53.548;9.926;2023-11-19T09:24:42;11.00;99.90
17954;DHT22;9102;53.548;9.926;2023-11-19T09:27:10;11.00;99.90
17954;DHT22;9102;53.548;9.926;2023-11-19T09:29:37;11.00;99.90
17954;DHT22;9102;53.548;9.926;2023-11-19T09:32:04;11.00;99.90
17954;DHT22;9102;53.548;9.926;2023-11-19T09:34:31;11.00;99.90
17954;DHT22;9102;53.548;9.926;2023-11-19T09:36:58;11.20;99.90
17954;DHT22;9102;53.548;9.926;2023-11-19T09:39:27;11.20;99.90
17954;DHT22;9102;53.548;9.926;2023-11-19T09:41:54;11.20;99.90
17954;DHT22;9102;53.548;9.926;2023-11-19T09:44:21;11.20;99.90
17954;DHT22;9102;53.548;9.926;2023-11-19T09:46:48;11.20;99.90
17954;DHT22;9102;53.548;9.926;2023-11-19T09:49:18;11.10;99.90
17954;DHT22;9102;53.548;9.926;2023-11-19T09:51:47;11.10;99.90
17954;DHT22;9102;53.548;9.926;2023-11-19T09:54:14;11.00;99.90
17954;DHT22;9102;53.548;9.926;2023-11-19T09:56:43;11.00;99.90
17954;DHT22;9102;53.548;9.926;2023-11-19T09:59:10;10.90;99.90
17954;DHT22;9102;53.548;9.926;2023-11-19T10:01:38;10.80;99.90
17954;DHT22;9102;53.548;9.926;2023-11-19T10:04:06;10.80;99.90
17954;DHT22;9102;53.548;9.926;2023-11-19T10:06:33;10.70;99.90
17954;DHT22;9102;53.548;9.926;2023-11-19T10:09:00;10.80;99.90
17954;DHT22;9102;53.548;9.926;2023-11-19T10:11:27;10.80;99.90
17954;DHT22;9102;53.548;9.926;2023-11-19T10:13:55;10.90;99.90
17954;DHT22;9102;53.548;9.926;2023-11-19T10:16:28;11.00;99.90
17954;DHT22;9102;53.548;9.926;2023-11-19T10:18:56;11.00;99.90
17954;DHT22;9102;53.548;9.926;2023-11-19T10:21:23;11.00;99.90
17954;DHT22;9102;53.548;9.926;2023-11-19T10:23:52;11.00;99.90
17954;DHT22;9102;53.548;9.926;2023-11-19T10:26:20;10.90;99.90
17954;DHT22;9102;53.548;9.926;2023-11-19T10:28:47;10.90;99.90
17954;DHT22;9102;53.548;9.926;2023-11-19T10:31:17;10.80;99.90
17954;DHT22;9102;53.548;9.926;2023-11-19T10:33:44;10.80;99.90
17954;DHT22;9102;53.548;9.926;2023-11-19T10:36:11;10.80;99.90
17954;DHT22;9102;53.548;9.926;2023-11-19T10:38:38;10.80;99.90
17954;DHT22;9102;53.548;9.926;2023-11-19T10:41:06;10.90;99.90
17954;DHT22;9102;53.548;9.926;2023-11-19T10:43:43;10.90;99.90
17954;DHT22;9102;53.548;9.926;2023-11-19T10:46:12;10.90;99.90
17954;DHT22;9102;53.548;9.926;2023-11-19T10:48:40;10.90;99.90
17954;DHT22;9102;53.548;9.926;2023-11-19T10:51:08;10.90;99.90
17954;DHT22;9102;53.548;9.926;2023-11-19T10:53:36;10.90;99.90
17954;DHT22;9102;53.548;9.926;2023-11-19T10:56:06;10.90;99.90
17954;DHT22;9102;53.548;9.926;2023-11-19T10:58:37;10.90;99.90
17954;DHT22;9102;53.548;9.926;2023-11-19T11:01:13;10.90;99.90
17954;DHT22;9102;53.548;9.926;2023-11-19T11:03:44;11.00;99.90
17954;DHT22;9102;53.548;9.926;2023-11-19T11:06:13;11.00;99.90
17954;DHT22;9102;53.548;9.926;2023-11-19T11:08:40;11.00;99.90
17954;DHT22;9102;53.548;9.926;2023-11-19T11:11:08;11.00;99.90
17954;DHT22;9102;53.548;9.926;2023-11-19T11:13:41;11.00;99.90
17954;DHT22;9102;53.548;9.926;2023-11-19T11:16:09;11.00;99.90
17954;DHT22;9102;53.548;9.926;2023-11-19T11:18:36;11.00;99.90
17954;DHT22;9102;53.548;9.926;2023-11-19T11:21:08;10.90;99.90
17954;DHT22;9102;53.548;9.926;2023-11-19T11:26:57;11.00;99.90
17954;DHT22;9102;53.548;9.926;2023-11-19T11:29:31;11.10;99.90
17954;DHT22;9102;53.548;9.926;2023-11-19T11:32:19;11.10;99.90
17954;DHT22;9102;53.548;9.926;2023-11-19T11:34:59;11.20;99.90
17954;DHT22;9102;53.548;9.926;2023-11-19T11:37:33;11.10;99.90
17954;DHT22;9102;53.548;9.926;2023-11-19T11:40:02;11.10;99.90
17954;DHT22;9102;53.548;9.926;2023-11-19T11:42:36;11.20;99.90
17954;DHT22;9102;53.548;9.926;2023-11-19T11:45:05;11.30;99.90
17954;DHT22;9102;53.548;9.926;2023-11-19T11:48:09;11.40;99.90
17954;DHT22;9102;53.548;9.926;2023-11-19T11:50:49;11.50;99.90
17954;DHT22;9102;53.548;9.926;2023-11-19T11:53:21;11.60;99.90
17954;DHT22;9102;53.548;9.926;2023-11-19T11:55:57;11.60;99.90
17954;DHT22;9102;53.548;9.926;2023-11-19T11:58:28;11.60;99.90
17954;DHT22;9102;53.548;9.926;2023-11-19T12:00:58;11.70;99.90
17954;DHT22;9102;53.548;9.926;2023-11-19T12:03:28;11.80;99.90
17954;DHT22;9102;53.548;9.926;2023-11-19T12:05:55;11.90;99.90
17954;DHT22;9102;53.548;9.926;2023-11-19T12:08:27;11.90;99.90
17954;DHT22;9102;53.548;9.926;2023-11-19T12:10:56;12.00;99.90
17954;DHT22;9102;53.548;9.926;2023-11-19T12:13:24;11.90;99.90
17954;DHT22;9102;53.548;9.926;2023-11-19T12:16:13;11.90;99.90
17954;DHT22;9102;53.548;9.926;2023-11-19T12:18:40;11.80;99.90
17954;DHT22;9102;53.548;9.926;2023-11-19T12:21:08;11.70;99.90
17954;DHT22;9102;53.548;9.926;2023-11-19T12:23:45;11.60;99.90
17954;DHT22;9102;53.548;9.926;2023-11-19T12:26:35;11.50;99.90
17954;DHT22;9102;53.548;9.926;2023-11-19T12:29:03;11.40;99.90
17954;DHT22;9102;53.548;9.926;2023-11-19T12:31:29;11.40;99.90
17954;DHT22;9102;53.548;9.926;2023-11-19T12:33:57;11.40;99.90
17954;DHT22;9102;53.548;9.926;2023-11-19T12:36:24;11.40;99.90
17954;DHT22;9102;53.548;9.926;2023-11-19T12:38:52;11.30;99.90
17954;DHT22;9102;53.548;9.926;2023-11-19T12:41:19;11.40;99.90
17954;DHT22;9102;53.548;9.926;2023-11-19T12:43:49;11.40;99.90
17954;DHT22;9102;53.548;9.926;2023-11-19T12:46:20;11.50;99.90
17954;DHT22;9102;53.548;9.926;2023-11-19T12:48:47;11.50;99.90
17954;DHT22;9102;53.548;9.926;2023-11-19T12:51:14;11.60;99.90
17954;DHT22;9102;53.548;9.926;2023-11-19T12:53:52;11.70;99.90
17954;DHT22;9102;53.548;9.926;2023-11-19T12:56:20;11.80;99.90
17954;DHT22;9102;53.548;9.926;2023-11-19T12:58:47;11.70;99.90
17954;DHT22;9102;53.548;9.926;2023-11-19T13:01:16;11.80;99.90
17954;DHT22;9102;53.548;9.926;2023-11-19T13:03:43;11.90;99.90
17954;DHT22;9102;53.548;9.926;2023-11-19T13:06:11;11.90;99.90
17954;DHT22;9102;53.548;9.926;2023-11-19T13:08:39;11.90;99.90
17954;DHT22;9102;53.548;9.926;2023-11-19T13:11:08;11.90;99.90
17954;DHT22;9102;53.548;9.926;2023-11-19T13:14:00;11.90;99.90
17954;DHT22;9102;53.548;9.926;2023-11-19T13:16:30;12.00;99.90
17954;DHT22;9102;53.548;9.926;2023-11-19T13:18:57;12.00;99.90
17954;DHT22;9102;53.548;9.926;2023-11-19T13:21:25;12.20;99.90
17954;DHT22;9102;53.548;9.926;2023-11-19T13:23:52;12.20;99.90
17954;DHT22;9102;53.548;9.926;2023-11-19T13:26:20;12.20;99.90
17954;DHT22;9102;53.548;9.926;2023-11-19T13:28:47;12.20;99.90
17954;DHT22;9102;53.548;9.926;2023-11-19T13:31:14;12.10;99.90
17954;DHT22;9102;53.548;9.926;2023-11-19T13:33:41;12.10;99.90
17954;DHT22;9102;53.548;9.926;2023-11-19T13:36:09;12.00;99.90
17954;DHT22;9102;53.548;9.926;2023-11-19T13:38:36;11.90;99.90
17954;DHT22;9102;53.548;9.926;2023-11-19T13:41:03;11.90;99.90
17954;DHT22;9102;53.548;9.926;2023-11-19T13:43:32;11.90;99.90
17954;DHT22;9102;53.548;9.926;2023-11-19T13:45:59;11.80;99.90
17954;DHT22;9102;53.548;9.926;2023-11-19T13:48:26;11.80;99.90
17954;DHT22;9102;53.548;9.926;2023-11-19T13:50:54;11.80;99.90
17954;DHT22;9102;53.548;9.926;2023-11-19T13:53:21;11.90;99.90
17954;DHT22;9102;53.548;9.926;2023-11-19T13:55:48;11.90;99.90
17954;DHT22;9102;53.548;9.926;2023-11-19T13:58:15;12.00;99.90
17954;DHT22;9102;53.548;9.926;2023-11-19T14:00:43;12.00;99.90
17954;DHT22;9102;53.548;9.926;2023-11-19T14:03:10;12.00;99.90
17954;DHT22;9102;53.548;9.926;2023-11-19T14:05:37;12.00;99.90
17954;DHT22;9102;53.548;9.926;2023-11-19T14:08:04;12.10;99.90
17954;DHT22;9102;53.548;9.926;2023-11-19T14:10:37;12.00;99.90
17954;DHT22;9102;53.548;9.926;2023-11-19T14:13:04;12.00;99.90
17954;DHT22;9102;53.548;9.926;2023-11-19T14:15:31;12.10;99.90
17954;DHT22;9102;53.548;9.926;2023-11-19T14:17:59;12.00;99.90
17954;DHT22;9102;53.548;9.926;2023-11-19T14:20:26;12.00;99.90
17954;DHT22;9102;53.548;9.926;2023-11-19T14:22:53;11.90;99.90
17954;DHT22;9102;53.548;9.926;2023-11-19T14:25:20;11.90;99.90
17954;DHT22;9102;53.548;9.926;2023-11-19T14:27:49;11.80;99.90
17954;DHT22;9102;53.548;9.926;2023-11-19T14:30:16;11.60;99.90
17954;DHT22;9102;53.548;9.926;2023-11-19T14:32:43;11.50;99.90
17954;DHT22;9102;53.548;9.926;2023-11-19T14:35:12;11.40;99.90
17954;DHT22;9102;53.548;9.926;2023-11-19T14:37:39;11.30;99.90
17954;DHT22;9102;53.548;9.926;2023-11-19T14:40:07;11.20;99.90
17954;DHT22;9102;53.548;9.926;2023-11-19T14:42:36;11.20;99.90
17954;DHT22;9102;53.548;9.926;2023-11-19T14:45:05;11.10;99.90
17954;DHT22;9102;53.548;9.926;2023-11-19T14:47:33;11.00;99.90
17954;DHT22;9102;53.548;9.926;2023-11-19T14:50:00;11.00;99.90
17954;DHT22;9102;53.548;9.926;2023-11-19T14:52:28;11.00;99.90
17954;DHT22;9102;53.548;9.926;2023-11-19T14:54:55;10.90;99.90
17954;DHT22;9102;53.548;9.926;2023-11-19T14:57:22;10.90;99.90
17954;DHT22;9102;53.548;9.926;2023-11-19T14:59:49;10.80;99.90
17954;DHT22;9102;53.548;9.926;2023-11-19T15:02:16;10.80;99.90
17954;DHT22;9102;53.548;9.926;2023-11-19T15:04:42;10.80;99.90
17954;DHT22;9102;53.548;9.926;2023-11-19T15:07:10;10.80;99.90
17954;DHT22;9102;53.548;9.926;2023-11-19T15:09:39;10.70;99.90
17954;DHT22;9102;53.548;9.926;2023-11-19T15:12:06;10.70;99.90
17954;DHT22;9102;53.548;9.926;2023-11-19T15:14:33;10.70;99.90
17954;DHT22;9102;53.548;9.926;2023-11-19T15:16:59;10.70;99.90
17954;DHT22;9102;53.548;9.926;2023-11-19T15:19:26;10.70;99.90
17954;DHT22;9102;53.548;9.926;2023-11-19T15:21:53;10.70;99.90
17954;DHT22;9102;53.548;9.926;2023-11-19T15:24:20;10.60;99.90
17954;DHT22;9102;53.548;9.926;2023-11-19T15:26:50;10.70;99.90
17954;DHT22;9102;53.548;9.926;2023-11-19T15:29:16;10.60;99.90
17954;DHT22;9102;53.548;9.926;2023-11-19T15:31:43;10.60;99.90
17954;DHT22;9102;53.548;9.926;2023-11-19T15:34:10;10.60;99.90
17954;DHT22;9102;53.548;9.926;2023-11-19T15:36:37;10.60;99.90
17954;DHT22;9102;53.548;9.926;2023-11-19T15:39:04;10.60;99.90
17954;DHT22;9102;53.548;9.926;2023-11-19T15:41:31;10.60;99.90
17954;DHT22;9102;53.548;9.926;2023-11-19T15:43:59;10.60;99.90
17954;DHT22;9102;53.548;9.926;2023-11-19T15:46:29;10.60;99.90
17954;DHT22;9102;53.548;9.926;2023-11-19T15:48:56;10.60;99.90
17954;DHT22;9102;53.548;9.926;2023-11-19T15:51:22;10.60;99.90
17954;DHT22;9102;53.548;9.926;2023-11-19T15:53:49;10.60;99.90
17954;DHT22;9102;53.548;9.926;2023-11-19T15:56:16;10.60;99.90
17954;DHT22;9102;53.548;9.926;2023-11-19T15:58:43;10.60;99.90
17954;DHT22;9102;53.548;9.926;2023-11-19T16:01:11;10.60;99.90